sensor_id;sensor_type;location;lat;lon;timestamp;P1;durP1;ratioP1;P2;durP2;ratioP2
18732;SDS011;9495;51.210;2.934;2023-03-12T00:00:32;10.60;;;4.93;;
18732;SDS011;9495;51.210;2.934;2023-03-12T00:03:01;12.70;;;4.90;;
18732;SDS011;9495;51.210;2.934;2023-03-12T00:05:29;10.90;;;5.63;;
18732;SDS011;9495;51.210;2.934;2023-03-12T00:07:58;10.03;;;4.70;;
18732;SDS011;9495;51.210;2.934;2023-03-12T00:10:27;15.83;;;5.37;;
18732;SDS011;9495;51.210;2.934;2023-03-12T00:12:56;10.20;;;4.57;;
18732;SDS011;9495;51.210;2.934;2023-03-12T00:15:25;10.77;;;5.03;;
18732;SDS011;9495;51.210;2.934;2023-03-12T00:17:54;10.53;;;4.90;;
18732;SDS011;9495;51.210;2.934;2023-03-12T00:20:22;9.20;;;5.13;;
18732;SDS011;9495;51.210;2.934;2023-03-12T00:22:51;10.33;;;5.40;;
18732;SDS011;9495;51.210;2.934;2023-03-12T00:25:20;9.57;;;5.30;;
18732;SDS011;9495;51.210;2.934;2023-03-12T00:27:50;9.07;;;4.93;;
18732;SDS011;9495;51.210;2.934;2023-03-12T00:30:18;6.63;;;4.50;;
18732;SDS011;9495;51.210;2.934;2023-03-12T00:32:47;11.90;;;4.83;;
18732;SDS011;9495;51.210;2.934;2023-03-12T00:35:15;11.70;;;5.53;;
18732;SDS011;9495;51.210;2.934;2023-03-12T00:37:44;10.07;;;5.33;;
18732;SDS011;9495;51.210;2.934;2023-03-12T00:40:13;12.80;;;5.37;;
18732;SDS011;9495;51.210;2.934;2023-03-12T00:42:41;9.50;;;4.83;;
18732;SDS011;9495;51.210;2.934;2023-03-12T00:45:11;10.53;;;5.53;;
18732;SDS011;9495;51.210;2.934;2023-03-12T00:47:39;8.93;;;5.73;;
18732;SDS011;9495;51.210;2.934;2023-03-12T00:50:08;7.63;;;4.70;;
18732;SDS011;9495;51.210;2.934;2023-03-12T00:52:37;9.47;;;5.30;;
18732;SDS011;9495;51.210;2.934;2023-03-12T00:55:05;9.27;;;5.23;;
18732;SDS011;9495;51.210;2.934;2023-03-12T00:57:34;6.30;;;3.77;;
18732;SDS011;9495;51.210;2.934;2023-03-12T01:00:03;9.73;;;5.43;;
18732;SDS011;9495;51.210;2.934;2023-03-12T01:02:37;9.00;;;5.80;;
18732;SDS011;9495;51.210;2.934;2023-03-12T01:05:07;9.77;;;5.00;;
18732;SDS011;9495;51.210;2.934;2023-03-12T01:07:37;11.67;;;5.47;;
18732;SDS011;9495;51.210;2.934;2023-03-12T01:10:06;10.07;;;5.53;;
18732;SDS011;9495;51.210;2.934;2023-03-12T01:12:36;10.50;;;4.97;;
18732;SDS011;9495;51.210;2.934;2023-03-12T01:15:04;10.63;;;5.33;;
18732;SDS011;9495;51.210;2.934;2023-03-12T01:17:34;9.60;;;5.67;;
18732;SDS011;9495;51.210;2.934;2023-03-12T01:20:04;10.00;;;5.70;;
18732;SDS011;9495;51.210;2.934;2023-03-12T01:22:33;8.73;;;5.17;;
18732;SDS011;9495;51.210;2.934;2023-03-12T01:25:02;10.77;;;6.30;;
18732;SDS011;9495;51.210;2.934;2023-03-12T01:27:31;8.20;;;6.30;;
18732;SDS011;9495;51.210;2.934;2023-03-12T01:30:00;10.40;;;5.40;;
18732;SDS011;9495;51.210;2.934;2023-03-12T01:32:28;12.70;;;5.77;;
18732;SDS011;9495;51.210;2.934;2023-03-12T01:34:57;15.87;;;6.53;;
18732;SDS011;9495;51.210;2.934;2023-03-12T01:37:27;10.63;;;6.37;;
18732;SDS011;9495;51.210;2.934;2023-03-12T01:39:56;13.03;;;6.10;;
18732;SDS011;9495;51.210;2.934;2023-03-12T01:42:24;15.07;;;7.33;;
18732;SDS011;9495;51.210;2.934;2023-03-12T01:44:53;10.70;;;5.70;;
18732;SDS011;9495;51.210;2.934;2023-03-12T01:47:22;15.37;;;6.70;;
18732;SDS011;9495;51.210;2.934;2023-03-12T01:49:52;10.73;;;5.37;;
18732;SDS011;9495;51.210;2.934;2023-03-12T01:52:22;12.17;;;6.13;;
18732;SDS011;9495;51.210;2.934;2023-03-12T01:54:56;11.10;;;6.27;;
18732;SDS011;9495;51.210;2.934;2023-03-12T01:57:29;12.00;;;7.03;;
18732;SDS011;9495;51.210;2.934;2023-03-12T02:00:02;10.17;;;6.13;;
18732;SDS011;9495;51.210;2.934;2023-03-12T02:02:37;13.93;;;7.07;;
18732;SDS011;9495;51.210;2.934;2023-03-12T02:05:08;12.50;;;7.10;;
18732;SDS011;9495;51.210;2.934;2023-03-12T02:07:43;13.63;;;6.97;;
18732;SDS011;9495;51.210;2.934;2023-03-12T02:10:13;13.43;;;7.23;;
18732;SDS011;9495;51.210;2.934;2023-03-12T02:12:42;9.67;;;6.97;;
18732;SDS011;9495;51.210;2.934;2023-03-12T02:15:11;12.67;;;7.23;;
18732;SDS011;9495;51.210;2.934;2023-03-12T02:17:39;13.47;;;6.97;;
18732;SDS011;9495;51.210;2.934;2023-03-12T02:20:09;12.77;;;6.97;;
18732;SDS011;9495;51.210;2.934;2023-03-12T02:22:43;10.43;;;5.77;;
18732;SDS011;9495;51.210;2.934;2023-03-12T02:25:27;11.20;;;7.50;;
18732;SDS011;9495;51.210;2.934;2023-03-12T02:27:57;11.33;;;7.30;;
18732;SDS011;9495;51.210;2.934;2023-03-12T02:30:28;15.10;;;8.23;;
18732;SDS011;9495;51.210;2.934;2023-03-12T02:32:58;14.47;;;8.20;;
18732;SDS011;9495;51.210;2.934;2023-03-12T02:35:28;13.20;;;7.70;;
18732;SDS011;9495;51.210;2.934;2023-03-12T02:37:56;15.07;;;9.03;;
18732;SDS011;9495;51.210;2.934;2023-03-12T02:40:27;14.43;;;8.93;;
18732;SDS011;9495;51.210;2.934;2023-03-12T02:42:58;13.07;;;7.83;;
18732;SDS011;9495;51.210;2.934;2023-03-12T02:45:28;14.63;;;8.13;;
18732;SDS011;9495;51.210;2.934;2023-03-12T02:47:57;13.37;;;8.13;;
18732;SDS011;9495;51.210;2.934;2023-03-12T02:50:26;17.63;;;8.87;;
18732;SDS011;9495;51.210;2.934;2023-03-12T02:52:54;15.60;;;9.57;;
18732;SDS011;9495;51.210;2.934;2023-03-12T02:55:22;15.83;;;8.97;;
18732;SDS011;9495;51.210;2.934;2023-03-12T02:57:52;18.50;;;9.77;;
18732;SDS011;9495;51.210;2.934;2023-03-12T03:00:21;12.13;;;9.00;;
18732;SDS011;9495;51.210;2.934;2023-03-12T03:02:49;15.27;;;8.97;;
18732;SDS011;9495;51.210;2.934;2023-03-12T03:05:18;15.17;;;9.00;;
18732;SDS011;9495;51.210;2.934;2023-03-12T03:07:47;14.90;;;9.90;;
18732;SDS011;9495;51.210;2.934;2023-03-12T03:10:16;18.27;;;9.50;;
18732;SDS011;9495;51.210;2.934;2023-03-12T03:12:44;17.67;;;9.83;;
18732;SDS011;9495;51.210;2.934;2023-03-12T03:15:14;16.63;;;9.73;;
18732;SDS011;9495;51.210;2.934;2023-03-12T03:17:43;19.67;;;10.87;;
18732;SDS011;9495;51.210;2.934;2023-03-12T03:20:12;17.50;;;11.70;;
18732;SDS011;9495;51.210;2.934;2023-03-12T03:22:40;15.50;;;10.83;;
18732;SDS011;9495;51.210;2.934;2023-03-12T03:25:09;18.03;;;11.87;;
18732;SDS011;9495;51.210;2.934;2023-03-12T03:27:37;19.13;;;13.30;;
18732;SDS011;9495;51.210;2.934;2023-03-12T03:30:06;23.57;;;13.03;;
18732;SDS011;9495;51.210;2.934;2023-03-12T03:32:38;19.67;;;12.43;;
18732;SDS011;9495;51.210;2.934;2023-03-12T03:35:06;24.23;;;14.30;;
18732;SDS011;9495;51.210;2.934;2023-03-12T03:37:35;27.80;;;16.03;;
18732;SDS011;9495;51.210;2.934;2023-03-12T03:40:04;23.93;;;14.47;;
18732;SDS011;9495;51.210;2.934;2023-03-12T03:42:37;23.13;;;15.90;;
18732;SDS011;9495;51.210;2.934;2023-03-12T03:45:06;26.87;;;18.00;;
18732;SDS011;9495;51.210;2.934;2023-03-12T03:47:37;29.33;;;19.43;;
18732;SDS011;9495;51.210;2.934;2023-03-12T03:50:06;26.13;;;18.87;;
18732;SDS011;9495;51.210;2.934;2023-03-12T03:52:35;31.17;;;20.80;;
18732;SDS011;9495;51.210;2.934;2023-03-12T03:55:03;38.63;;;20.67;;
18732;SDS011;9495;51.210;2.934;2023-03-12T03:57:32;30.00;;;21.80;;
18732;SDS011;9495;51.210;2.934;2023-03-12T04:00:01;32.40;;;21.70;;
18732;SDS011;9495;51.210;2.934;2023-03-12T04:02:34;32.57;;;22.20;;
18732;SDS011;9495;51.210;2.934;2023-03-12T04:05:04;33.00;;;22.83;;
18732;SDS011;9495;51.210;2.934;2023-03-12T04:07:33;35.67;;;23.27;;
18732;SDS011;9495;51.210;2.934;2023-03-12T04:10:02;33.20;;;24.60;;
18732;SDS011;9495;51.210;2.934;2023-03-12T04:12:31;34.50;;;23.77;;
18732;SDS011;9495;51.210;2.934;2023-03-12T04:15:00;34.47;;;24.20;;
18732;SDS011;9495;51.210;2.934;2023-03-12T04:17:28;39.43;;;24.90;;
18732;SDS011;9495;51.210;2.934;2023-03-12T04:19:57;35.67;;;25.57;;
18732;SDS011;9495;51.210;2.934;2023-03-12T04:22:26;34.13;;;24.23;;
18732;SDS011;9495;51.210;2.934;2023-03-12T04:24:55;35.70;;;23.93;;
18732;SDS011;9495;51.210;2.934;2023-03-12T04:27:23;34.63;;;23.47;;
18732;SDS011;9495;51.210;2.934;2023-03-12T04:29:52;41.97;;;25.63;;
18732;SDS011;9495;51.210;2.934;2023-03-12T04:32:20;35.23;;;25.30;;
18732;SDS011;9495;51.210;2.934;2023-03-12T04:34:49;36.43;;;25.27;;
18732;SDS011;9495;51.210;2.934;2023-03-12T04:37:18;38.43;;;27.13;;
18732;SDS011;9495;51.210;2.934;2023-03-12T04:39:47;37.67;;;26.97;;
18732;SDS011;9495;51.210;2.934;2023-03-12T04:42:16;41.23;;;25.73;;
18732;SDS011;9495;51.210;2.934;2023-03-12T04:44:44;36.80;;;26.23;;
18732;SDS011;9495;51.210;2.934;2023-03-12T04:47:13;38.73;;;27.10;;
18732;SDS011;9495;51.210;2.934;2023-03-12T04:49:41;39.20;;;26.87;;
18732;SDS011;9495;51.210;2.934;2023-03-12T04:52:09;40.50;;;27.23;;
18732;SDS011;9495;51.210;2.934;2023-03-12T04:54:39;42.10;;;27.70;;
18732;SDS011;9495;51.210;2.934;2023-03-12T04:57:08;46.43;;;30.13;;
18732;SDS011;9495;51.210;2.934;2023-03-12T04:59:37;43.10;;;29.37;;
18732;SDS011;9495;51.210;2.934;2023-03-12T05:02:05;46.53;;;28.83;;
18732;SDS011;9495;51.210;2.934;2023-03-12T05:04:34;45.90;;;30.03;;
18732;SDS011;9495;51.210;2.934;2023-03-12T05:07:02;43.77;;;27.70;;
18732;SDS011;9495;51.210;2.934;2023-03-12T05:09:31;47.20;;;29.03;;
18732;SDS011;9495;51.210;2.934;2023-03-12T05:12:00;41.13;;;26.43;;
18732;SDS011;9495;51.210;2.934;2023-03-12T05:14:30;44.23;;;26.87;;
18732;SDS011;9495;51.210;2.934;2023-03-12T05:16:58;39.57;;;26.00;;
18732;SDS011;9495;51.210;2.934;2023-03-12T05:19:27;41.97;;;27.03;;
18732;SDS011;9495;51.210;2.934;2023-03-12T05:21:55;44.70;;;25.20;;
18732;SDS011;9495;51.210;2.934;2023-03-12T05:24:24;38.93;;;24.57;;
18732;SDS011;9495;51.210;2.934;2023-03-12T05:26:52;39.57;;;26.33;;
18732;SDS011;9495;51.210;2.934;2023-03-12T05:29:21;39.37;;;25.83;;
18732;SDS011;9495;51.210;2.934;2023-03-12T05:31:50;44.97;;;28.10;;
18732;SDS011;9495;51.210;2.934;2023-03-12T05:34:19;46.47;;;28.53;;
18732;SDS011;9495;51.210;2.934;2023-03-12T05:36:47;43.97;;;26.60;;
18732;SDS011;9495;51.210;2.934;2023-03-12T05:39:16;44.57;;;27.03;;
18732;SDS011;9495;51.210;2.934;2023-03-12T05:41:44;46.40;;;26.77;;
18732;SDS011;9495;51.210;2.934;2023-03-12T05:44:13;46.57;;;28.03;;
18732;SDS011;9495;51.210;2.934;2023-03-12T05:46:41;48.80;;;28.67;;
18732;SDS011;9495;51.210;2.934;2023-03-12T05:49:11;52.20;;;27.17;;
18732;SDS011;9495;51.210;2.934;2023-03-12T05:51:40;53.27;;;29.43;;
18732;SDS011;9495;51.210;2.934;2023-03-12T05:54:09;56.10;;;29.83;;
18732;SDS011;9495;51.210;2.934;2023-03-12T05:56:37;57.70;;;29.37;;
18732;SDS011;9495;51.210;2.934;2023-03-12T05:59:06;53.63;;;29.93;;
18732;SDS011;9495;51.210;2.934;2023-03-12T06:01:36;64.33;;;32.47;;
18732;SDS011;9495;51.210;2.934;2023-03-12T06:04:05;60.87;;;33.17;;
18732;SDS011;9495;51.210;2.934;2023-03-12T06:06:35;64.33;;;32.30;;
18732;SDS011;9495;51.210;2.934;2023-03-12T06:09:04;68.03;;;31.23;;
18732;SDS011;9495;51.210;2.934;2023-03-12T06:11:33;66.20;;;31.73;;
18732;SDS011;9495;51.210;2.934;2023-03-12T06:14:02;67.50;;;31.70;;
18732;SDS011;9495;51.210;2.934;2023-03-12T06:16:30;70.00;;;31.67;;
18732;SDS011;9495;51.210;2.934;2023-03-12T06:18:59;68.53;;;29.70;;
18732;SDS011;9495;51.210;2.934;2023-03-12T06:21:29;65.97;;;28.70;;
18732;SDS011;9495;51.210;2.934;2023-03-12T06:24:00;63.40;;;25.13;;
18732;SDS011;9495;51.210;2.934;2023-03-12T06:26:29;68.20;;;24.30;;
18732;SDS011;9495;51.210;2.934;2023-03-12T06:28:57;69.40;;;24.63;;
18732;SDS011;9495;51.210;2.934;2023-03-12T06:31:26;68.87;;;21.70;;
18732;SDS011;9495;51.210;2.934;2023-03-12T06:33:54;75.63;;;19.37;;
18732;SDS011;9495;51.210;2.934;2023-03-12T06:36:23;71.17;;;17.23;;
18732;SDS011;9495;51.210;2.934;2023-03-12T06:38:51;65.10;;;14.53;;
18732;SDS011;9495;51.210;2.934;2023-03-12T06:41:23;64.03;;;14.87;;
18732;SDS011;9495;51.210;2.934;2023-03-12T06:43:52;62.23;;;13.30;;
18732;SDS011;9495;51.210;2.934;2023-03-12T06:46:20;73.20;;;12.17;;
18732;SDS011;9495;51.210;2.934;2023-03-12T06:48:51;61.70;;;12.00;;
18732;SDS011;9495;51.210;2.934;2023-03-12T06:51:19;62.13;;;12.03;;
18732;SDS011;9495;51.210;2.934;2023-03-12T06:53:47;65.63;;;11.23;;
18732;SDS011;9495;51.210;2.934;2023-03-12T06:56:16;71.77;;;10.57;;
18732;SDS011;9495;51.210;2.934;2023-03-12T06:58:46;76.87;;;12.53;;
18732;SDS011;9495;51.210;2.934;2023-03-12T07:01:14;70.33;;;10.43;;
18732;SDS011;9495;51.210;2.934;2023-03-12T07:03:42;61.07;;;9.53;;
18732;SDS011;9495;51.210;2.934;2023-03-12T07:06:11;56.73;;;10.07;;
18732;SDS011;9495;51.210;2.934;2023-03-12T07:08:41;55.70;;;10.30;;
18732;SDS011;9495;51.210;2.934;2023-03-12T07:11:10;64.60;;;11.13;;
18732;SDS011;9495;51.210;2.934;2023-03-12T07:13:40;50.27;;;9.37;;
18732;SDS011;9495;51.210;2.934;2023-03-12T07:16:10;57.07;;;10.10;;
18732;SDS011;9495;51.210;2.934;2023-03-12T07:18:39;48.30;;;9.50;;
18732;SDS011;9495;51.210;2.934;2023-03-12T07:21:07;60.43;;;10.13;;
18732;SDS011;9495;51.210;2.934;2023-03-12T07:23:36;59.23;;;9.13;;
18732;SDS011;9495;51.210;2.934;2023-03-12T07:26:04;69.53;;;11.40;;
18732;SDS011;9495;51.210;2.934;2023-03-12T07:28:33;56.30;;;9.43;;
18732;SDS011;9495;51.210;2.934;2023-03-12T07:31:02;50.83;;;9.00;;
18732;SDS011;9495;51.210;2.934;2023-03-12T07:33:32;57.53;;;9.13;;
18732;SDS011;9495;51.210;2.934;2023-03-12T07:36:01;48.27;;;7.80;;
18732;SDS011;9495;51.210;2.934;2023-03-12T07:38:29;55.27;;;9.20;;
18732;SDS011;9495;51.210;2.934;2023-03-12T07:40:58;54.13;;;9.97;;
18732;SDS011;9495;51.210;2.934;2023-03-12T07:43:27;63.60;;;9.83;;
18732;SDS011;9495;51.210;2.934;2023-03-12T07:45:55;62.50;;;12.20;;
18732;SDS011;9495;51.210;2.934;2023-03-12T07:48:25;70.03;;;10.43;;
18732;SDS011;9495;51.210;2.934;2023-03-12T07:50:56;71.40;;;12.23;;
18732;SDS011;9495;51.210;2.934;2023-03-12T07:53:24;68.30;;;10.80;;
18732;SDS011;9495;51.210;2.934;2023-03-12T07:55:53;54.03;;;10.10;;
18732;SDS011;9495;51.210;2.934;2023-03-12T07:58:22;61.00;;;11.43;;
18732;SDS011;9495;51.210;2.934;2023-03-12T08:00:50;60.27;;;10.30;;
18732;SDS011;9495;51.210;2.934;2023-03-12T08:03:21;69.43;;;11.03;;
18732;SDS011;9495;51.210;2.934;2023-03-12T08:05:56;74.00;;;12.33;;
18732;SDS011;9495;51.210;2.934;2023-03-12T08:08:27;63.67;;;11.00;;
18732;SDS011;9495;51.210;2.934;2023-03-12T08:10:56;60.67;;;10.53;;
18732;SDS011;9495;51.210;2.934;2023-03-12T08:13:25;57.37;;;10.43;;
18732;SDS011;9495;51.210;2.934;2023-03-12T08:15:54;70.23;;;11.43;;
18732;SDS011;9495;51.210;2.934;2023-03-12T08:18:23;62.93;;;12.63;;
18732;SDS011;9495;51.210;2.934;2023-03-12T08:20:51;75.07;;;12.33;;
18732;SDS011;9495;51.210;2.934;2023-03-12T08:23:22;75.10;;;12.83;;
18732;SDS011;9495;51.210;2.934;2023-03-12T08:25:52;64.57;;;11.73;;
18732;SDS011;9495;51.210;2.934;2023-03-12T08:28:21;72.63;;;11.77;;
18732;SDS011;9495;51.210;2.934;2023-03-12T08:30:51;70.10;;;11.40;;
18732;SDS011;9495;51.210;2.934;2023-03-12T08:33:21;67.60;;;12.33;;
18732;SDS011;9495;51.210;2.934;2023-03-12T08:35:49;67.30;;;11.10;;
18732;SDS011;9495;51.210;2.934;2023-03-12T08:38:18;70.97;;;12.53;;
18732;SDS011;9495;51.210;2.934;2023-03-12T08:40:54;66.47;;;12.17;;
18732;SDS011;9495;51.210;2.934;2023-03-12T08:43:23;64.77;;;11.10;;
18732;SDS011;9495;51.210;2.934;2023-03-12T08:45:54;57.50;;;10.20;;
18732;SDS011;9495;51.210;2.934;2023-03-12T08:48:23;55.40;;;10.30;;
18732;SDS011;9495;51.210;2.934;2023-03-12T08:50:53;65.57;;;9.60;;
18732;SDS011;9495;51.210;2.934;2023-03-12T08:53:23;66.83;;;11.53;;
18732;SDS011;9495;51.210;2.934;2023-03-12T08:55:51;60.07;;;9.20;;
18732;SDS011;9495;51.210;2.934;2023-03-12T08:58:22;59.40;;;12.33;;
18732;SDS011;9495;51.210;2.934;2023-03-12T09:00:52;58.27;;;10.77;;
18732;SDS011;9495;51.210;2.934;2023-03-12T09:03:21;53.87;;;9.47;;
18732;SDS011;9495;51.210;2.934;2023-03-12T09:05:50;60.40;;;11.20;;
18732;SDS011;9495;51.210;2.934;2023-03-12T09:08:28;60.50;;;10.93;;
18732;SDS011;9495;51.210;2.934;2023-03-12T09:11:00;54.43;;;9.20;;
18732;SDS011;9495;51.210;2.934;2023-03-12T09:13:29;63.47;;;10.33;;
18732;SDS011;9495;51.210;2.934;2023-03-12T09:16:17;78.37;;;11.87;;
18732;SDS011;9495;51.210;2.934;2023-03-12T09:18:46;59.07;;;10.63;;
18732;SDS011;9495;51.210;2.934;2023-03-12T09:21:15;74.07;;;12.13;;
18732;SDS011;9495;51.210;2.934;2023-03-12T09:23:43;69.20;;;12.80;;
18732;SDS011;9495;51.210;2.934;2023-03-12T09:26:14;65.47;;;13.30;;
18732;SDS011;9495;51.210;2.934;2023-03-12T09:28:42;69.77;;;12.33;;
18732;SDS011;9495;51.210;2.934;2023-03-12T09:31:11;69.70;;;12.70;;
18732;SDS011;9495;51.210;2.934;2023-03-12T09:33:40;79.23;;;13.07;;
18732;SDS011;9495;51.210;2.934;2023-03-12T09:36:08;86.47;;;14.07;;
18732;SDS011;9495;51.210;2.934;2023-03-12T09:38:37;71.00;;;12.93;;
18732;SDS011;9495;51.210;2.934;2023-03-12T09:41:11;62.67;;;12.37;;
18732;SDS011;9495;51.210;2.934;2023-03-12T09:43:46;74.93;;;13.63;;
18732;SDS011;9495;51.210;2.934;2023-03-12T09:46:21;78.60;;;13.73;;
18732;SDS011;9495;51.210;2.934;2023-03-12T09:48:53;81.53;;;12.83;;
18732;SDS011;9495;51.210;2.934;2023-03-12T09:51:27;71.93;;;14.00;;
18732;SDS011;9495;51.210;2.934;2023-03-12T09:53:59;68.70;;;11.27;;
18732;SDS011;9495;51.210;2.934;2023-03-12T09:56:31;59.40;;;9.30;;
18732;SDS011;9495;51.210;2.934;2023-03-12T09:59:01;56.67;;;10.60;;
18732;SDS011;9495;51.210;2.934;2023-03-12T10:01:34;52.00;;;10.00;;
18732;SDS011;9495;51.210;2.934;2023-03-12T10:04:23;39.87;;;5.87;;
18732;SDS011;9495;51.210;2.934;2023-03-12T10:07:25;60.43;;;10.47;;
18732;SDS011;9495;51.210;2.934;2023-03-12T10:10:02;54.47;;;9.93;;
18732;SDS011;9495;51.210;2.934;2023-03-12T10:13:01;44.17;;;9.10;;
18732;SDS011;9495;51.210;2.934;2023-03-12T10:15:46;28.23;;;4.20;;
18732;SDS011;9495;51.210;2.934;2023-03-12T10:18:24;46.60;;;7.47;;
18732;SDS011;9495;51.210;2.934;2023-03-12T10:21:03;38.40;;;7.13;;
18732;SDS011;9495;51.210;2.934;2023-03-12T10:23:41;32.60;;;6.20;;
18732;SDS011;9495;51.210;2.934;2023-03-12T10:26:18;34.72;;;7.63;;
18732;SDS011;9495;51.210;2.934;2023-03-12T10:28:52;36.37;;;7.43;;
18732;SDS011;9495;51.210;2.934;2023-03-12T10:31:26;44.53;;;10.07;;
18732;SDS011;9495;51.210;2.934;2023-03-12T10:33:58;32.25;;;6.15;;
18732;SDS011;9495;51.210;2.934;2023-03-12T10:36:28;43.33;;;7.83;;
18732;SDS011;9495;51.210;2.934;2023-03-12T10:39:09;35.70;;;6.53;;
18732;SDS011;9495;51.210;2.934;2023-03-12T10:41:41;39.95;;;7.15;;
18732;SDS011;9495;51.210;2.934;2023-03-12T10:44:13;41.63;;;8.73;;
18732;SDS011;9495;51.210;2.934;2023-03-12T10:49:39;37.53;;;7.33;;
18732;SDS011;9495;51.210;2.934;2023-03-12T10:52:13;33.90;;;6.55;;
18732;SDS011;9495;51.210;2.934;2023-03-12T10:54:43;45.53;;;8.50;;
18732;SDS011;9495;51.210;2.934;2023-03-12T10:57:13;45.10;;;8.33;;
18732;SDS011;9495;51.210;2.934;2023-03-12T10:59:44;46.13;;;8.17;;
18732;SDS011;9495;51.210;2.934;2023-03-12T11:02:31;41.10;;;8.60;;
18732;SDS011;9495;51.210;2.934;2023-03-12T11:05:01;45.37;;;7.87;;
18732;SDS011;9495;51.210;2.934;2023-03-12T11:07:35;45.20;;;8.73;;
18732;SDS011;9495;51.210;2.934;2023-03-12T11:10:15;40.90;;;7.70;;
18732;SDS011;9495;51.210;2.934;2023-03-12T11:12:56;29.77;;;7.57;;
18732;SDS011;9495;51.210;2.934;2023-03-12T11:15:36;22.60;;;4.43;;
18732;SDS011;9495;51.210;2.934;2023-03-12T11:21:12;32.13;;;6.80;;
18732;SDS011;9495;51.210;2.934;2023-03-12T11:23:43;23.33;;;5.03;;
18732;SDS011;9495;51.210;2.934;2023-03-12T11:26:15;23.50;;;4.83;;
18732;SDS011;9495;51.210;2.934;2023-03-12T11:28:46;22.23;;;4.73;;
18732;SDS011;9495;51.210;2.934;2023-03-12T11:31:19;28.60;;;5.95;;
18732;SDS011;9495;51.210;2.934;2023-03-12T11:33:50;34.10;;;7.28;;
18732;SDS011;9495;51.210;2.934;2023-03-12T11:36:26;43.85;;;7.60;;
18732;SDS011;9495;51.210;2.934;2023-03-12T11:39:07;40.65;;;8.50;;
18732;SDS011;9495;51.210;2.934;2023-03-12T11:41:48;41.30;;;8.20;;
18732;SDS011;9495;51.210;2.934;2023-03-12T11:44:29;45.30;;;8.50;;
18732;SDS011;9495;51.210;2.934;2023-03-12T11:47:09;45.37;;;8.77;;
18732;SDS011;9495;51.210;2.934;2023-03-12T11:49:49;40.63;;;7.50;;
18732;SDS011;9495;51.210;2.934;2023-03-12T11:52:43;37.03;;;6.90;;
18732;SDS011;9495;51.210;2.934;2023-03-12T11:55:26;18.88;;;3.83;;
18732;SDS011;9495;51.210;2.934;2023-03-12T11:58:18;40.25;;;7.75;;
18732;SDS011;9495;51.210;2.934;2023-03-12T12:01:02;47.37;;;8.90;;
18732;SDS011;9495;51.210;2.934;2023-03-12T12:03:45;49.30;;;8.93;;
18732;SDS011;9495;51.210;2.934;2023-03-12T12:06:31;52.97;;;12.50;;
18732;SDS011;9495;51.210;2.934;2023-03-12T12:09:09;50.03;;;9.17;;
18732;SDS011;9495;51.210;2.934;2023-03-12T12:11:46;48.53;;;10.18;;
18732;SDS011;9495;51.210;2.934;2023-03-12T12:14:28;50.77;;;8.40;;
18732;SDS011;9495;51.210;2.934;2023-03-12T12:17:12;46.43;;;8.40;;
18732;SDS011;9495;51.210;2.934;2023-03-12T12:19:53;52.37;;;8.73;;
18732;SDS011;9495;51.210;2.934;2023-03-12T12:22:38;57.30;;;10.70;;
18732;SDS011;9495;51.210;2.934;2023-03-12T12:25:20;59.33;;;11.02;;
18732;SDS011;9495;51.210;2.934;2023-03-12T12:28:08;43.73;;;8.07;;
18732;SDS011;9495;51.210;2.934;2023-03-12T12:30:51;51.00;;;9.13;;
18732;SDS011;9495;51.210;2.934;2023-03-12T12:33:32;45.90;;;8.33;;
18732;SDS011;9495;51.210;2.934;2023-03-12T12:36:13;46.27;;;9.90;;
18732;SDS011;9495;51.210;2.934;2023-03-12T12:38:44;50.97;;;8.97;;
18732;SDS011;9495;51.210;2.934;2023-03-12T12:41:16;40.00;;;8.40;;
18732;SDS011;9495;51.210;2.934;2023-03-12T12:43:48;39.07;;;8.13;;
18732;SDS011;9495;51.210;2.934;2023-03-12T12:46:17;39.97;;;7.87;;
18732;SDS011;9495;51.210;2.934;2023-03-12T12:48:49;39.92;;;7.15;;
18732;SDS011;9495;51.210;2.934;2023-03-12T12:51:23;37.97;;;7.53;;
18732;SDS011;9495;51.210;2.934;2023-03-12T12:53:54;40.27;;;7.27;;
18732;SDS011;9495;51.210;2.934;2023-03-12T12:56:29;40.13;;;7.40;;
18732;SDS011;9495;51.210;2.934;2023-03-12T13:01:52;35.03;;;6.87;;
18732;SDS011;9495;51.210;2.934;2023-03-12T13:04:23;41.30;;;8.23;;
18732;SDS011;9495;51.210;2.934;2023-03-12T13:06:59;33.20;;;6.85;;
18732;SDS011;9495;51.210;2.934;2023-03-12T13:09:36;36.33;;;6.97;;
18732;SDS011;9495;51.210;2.934;2023-03-12T13:12:11;33.93;;;7.53;;
18732;SDS011;9495;51.210;2.934;2023-03-12T13:14:42;33.22;;;6.60;;
18732;SDS011;9495;51.210;2.934;2023-03-12T13:17:24;38.15;;;6.68;;
18732;SDS011;9495;51.210;2.934;2023-03-12T13:19:58;39.80;;;6.78;;
18732;SDS011;9495;51.210;2.934;2023-03-12T13:22:43;34.33;;;7.53;;
18732;SDS011;9495;51.210;2.934;2023-03-12T13:25:23;41.65;;;7.43;;
18732;SDS011;9495;51.210;2.934;2023-03-12T13:28:25;33.27;;;6.50;;
18732;SDS011;9495;51.210;2.934;2023-03-12T13:31:01;35.87;;;7.87;;
18732;SDS011;9495;51.210;2.934;2023-03-12T13:33:51;29.27;;;5.73;;
18732;SDS011;9495;51.210;2.934;2023-03-12T13:36:21;27.65;;;6.32;;
18732;SDS011;9495;51.210;2.934;2023-03-12T13:38:54;32.73;;;7.23;;
18732;SDS011;9495;51.210;2.934;2023-03-12T13:41:31;30.17;;;6.53;;
18732;SDS011;9495;51.210;2.934;2023-03-12T13:47:16;34.13;;;6.57;;
18732;SDS011;9495;51.210;2.934;2023-03-12T13:49:51;32.28;;;6.93;;
18732;SDS011;9495;51.210;2.934;2023-03-12T13:52:23;29.73;;;6.57;;
18732;SDS011;9495;51.210;2.934;2023-03-12T13:55:01;33.93;;;6.10;;
18732;SDS011;9495;51.210;2.934;2023-03-12T13:57:35;37.50;;;8.20;;
18732;SDS011;9495;51.210;2.934;2023-03-12T14:00:10;40.20;;;7.27;;
18732;SDS011;9495;51.210;2.934;2023-03-12T14:02:44;39.40;;;8.17;;
18732;SDS011;9495;51.210;2.934;2023-03-12T14:05:16;47.00;;;9.10;;
18732;SDS011;9495;51.210;2.934;2023-03-12T14:08:08;36.60;;;7.40;;
18732;SDS011;9495;51.210;2.934;2023-03-12T14:10:45;47.27;;;9.13;;
18732;SDS011;9495;51.210;2.934;2023-03-12T14:13:32;50.00;;;8.83;;
18732;SDS011;9495;51.210;2.934;2023-03-12T14:16:09;61.80;;;10.53;;
18732;SDS011;9495;51.210;2.934;2023-03-12T14:18:45;62.17;;;10.23;;
18732;SDS011;9495;51.210;2.934;2023-03-12T14:21:15;58.27;;;10.53;;
18732;SDS011;9495;51.210;2.934;2023-03-12T14:23:45;63.03;;;12.37;;
18732;SDS011;9495;51.210;2.934;2023-03-12T14:26:20;54.97;;;10.90;;
18732;SDS011;9495;51.210;2.934;2023-03-12T14:28:54;62.80;;;11.93;;
18732;SDS011;9495;51.210;2.934;2023-03-12T14:31:25;63.03;;;11.57;;
18732;SDS011;9495;51.210;2.934;2023-03-12T14:33:57;54.37;;;11.30;;
18732;SDS011;9495;51.210;2.934;2023-03-12T14:36:33;62.20;;;12.60;;
18732;SDS011;9495;51.210;2.934;2023-03-12T14:39:12;59.13;;;10.33;;
18732;SDS011;9495;51.210;2.934;2023-03-12T14:41:54;60.20;;;11.70;;
18732;SDS011;9495;51.210;2.934;2023-03-12T14:44:27;52.40;;;9.57;;
18732;SDS011;9495;51.210;2.934;2023-03-12T14:46:58;47.23;;;9.83;;
18732;SDS011;9495;51.210;2.934;2023-03-12T14:49:29;63.47;;;9.23;;
18732;SDS011;9495;51.210;2.934;2023-03-12T14:51:58;53.03;;;10.40;;
18732;SDS011;9495;51.210;2.934;2023-03-12T14:54:26;58.40;;;10.53;;
18732;SDS011;9495;51.210;2.934;2023-03-12T14:56:56;46.77;;;9.10;;
18732;SDS011;9495;51.210;2.934;2023-03-12T14:59:27;44.23;;;7.90;;
18732;SDS011;9495;51.210;2.934;2023-03-12T15:01:58;47.00;;;9.30;;
18732;SDS011;9495;51.210;2.934;2023-03-12T15:04:28;48.07;;;8.53;;
18732;SDS011;9495;51.210;2.934;2023-03-12T15:07:00;52.50;;;9.73;;
18732;SDS011;9495;51.210;2.934;2023-03-12T15:09:33;46.07;;;9.33;;
18732;SDS011;9495;51.210;2.934;2023-03-12T15:12:04;43.87;;;8.90;;
18732;SDS011;9495;51.210;2.934;2023-03-12T15:14:36;43.80;;;7.50;;
18732;SDS011;9495;51.210;2.934;2023-03-12T15:17:07;46.40;;;7.53;;
18732;SDS011;9495;51.210;2.934;2023-03-12T15:19:42;40.50;;;8.03;;
18732;SDS011;9495;51.210;2.934;2023-03-12T15:22:12;37.17;;;7.43;;